Thunder radar more information blitzortung!


Radar de pluja more information rain snow radar


Visita la nostra xarxa de llocs de meteo:

Template documentation
and downloads

And another site



No particular awareness of the weather is required.    There are no Weather-warnings

Pagina Historial Weather Underground text

Diari Resum Setembre 13, 2017 Unitats:  Imperial    Mètric   Tant
« Previous Dia
SegĂźent Dia »
Diari Setmana Mensual Anual Personalitzada
  Maxima: Minima: Media:
Temperatura: 84.6 °F 60.4 °F 74.7 °F
Punt de rosada: 61.5 °F 53.4 °F 57.2 °F
Humitat: 86 % 36 % 57 %
Wind Speed: 17.3 mph 0 mph 6 mph
RĂ fegues de vent: 17.3 mph - -
Vent:- - SW
Pression baro: 30.2 in 30.1 in -
Precipitacions: 0 in    
Historical Graphs
 
 
Dades de taula per Setembre 13, 2017
Temps Temperatura Punt de rosada Pression baro Vent Wind Speed RĂ fegues de vent Humitat Rainfall Rate (Hourly)
00:00 62.1 °F 56.8 °F 30.1 in Calm   1 mph 83 % 0 in
00:01 65.3 °F 57.2 °F 30.1 in Calm     75 % 0 in
00:10 61.9 °F 56.7 °F 30.1 in Calm     83 % 0 in
00:20 61.3 °F 56.1 °F 30.1 in SSE 1 mph 1 mph 83 % 0 in
00:30 61.2 °F 55.9 °F 30.1 in Calm   1 mph 83 % 0 in
00:40 61 °F 56.1 °F 30.1 in Calm     84 % 0 in
00:50 60.8 °F 55.9 °F 30.1 in Calm     84 % 0 in
01:00 60.8 °F 55.9 °F 30.1 in SW 1 mph 1 mph 84 % 0 in
01:10 60.8 °F 55.9 °F 30.1 in Calm   1 mph 84 % 0 in
01:20 60.8 °F 56.3 °F 30.1 in Calm     85 % 0 in
01:30 60.8 °F 56.3 °F 30.1 in Calm     85 % 0 in
01:40 60.4 °F 55.9 °F 30.1 in Calm     85 % 0 in
01:50 60.4 °F 55.9 °F 30.1 in Calm     85 % 0 in
02:00 60.6 °F 56.1 °F 30.1 in Calm   2 mph 85 % 0 in
02:10 60.8 °F 56.3 °F 30.1 in Calm   2 mph 85 % 0 in
02:20 61 °F 56.5 °F 30.1 in WSW 1 mph 2 mph 85 % 0 in
02:30 61 °F 56.5 °F 30.1 in SW 2 mph 3 mph 85 % 0 in
02:40 61 °F 56.5 °F 30.1 in SW 2 mph 2 mph 85 % 0 in
02:50 61 °F 56.5 °F 30.1 in SW 1 mph 3 mph 85 % 0 in
03:00 60.8 °F 56.7 °F 30.1 in SW 1 mph 2 mph 86 % 0 in
03:10 61.2 °F 56.8 °F 30.1 in Calm   1 mph 86 % 0 in
03:20 61.2 °F 56.8 °F 30.1 in Calm   1 mph 86 % 0 in
03:30 61.5 °F 57.4 °F 30.2 in Calm     86 % 0 in
03:40 62.6 °F 58.5 °F 30.2 in NNW 1 mph 2 mph 86 % 0 in
03:50 63.3 °F 58.1 °F 30.2 in NNW 2 mph 3 mph 83 % 0 in
04:00 64.6 °F 58.6 °F 30.2 in NNW 1 mph 3 mph 81 % 0 in
04:10 64.9 °F 58.3 °F 30.2 in Calm   2 mph 79 % 0 in
04:20 65.1 °F 58.1 °F 30.2 in WSW 1 mph 2 mph 78 % 0 in
04:30 65.7 °F 58.6 °F 30.2 in SW 2 mph 3 mph 78 % 0 in
04:40 65.7 °F 58.6 °F 30.2 in SW 2 mph 3 mph 78 % 0 in
04:50 66 °F 59 °F 30.2 in WSW 1 mph 3 mph 78 % 0 in
05:00 67.1 °F 59.4 °F 30.2 in WSW 1 mph 2 mph 76 % 0 in
05:10 68.5 °F 59.9 °F 30.2 in West 2 mph 2 mph 74 % 0 in
05:20 70.2 °F 60.6 °F 30.2 in Calm   3 mph 72 % 0 in
10:22 70.5 °F 59.9 °F 30.2 in North 2.3 mph 2.3 mph 69 % 0 in
10:23 70.7 °F 60.1 °F 30.2 in North 1.6 mph 1.6 mph 69 % 0 in
10:24 71.1 °F 60.4 °F 30.2 in NW 1.2 mph 1.4 mph 69 % 0 in
10:29 71.4 °F 59.9 °F 30.2 in NNE 2.6 mph 2.6 mph 67 % 0 in
10:34 72.1 °F 58.8 °F 30.2 in NNE 3.5 mph 3.5 mph 63 % 0 in
10:39 72.1 °F 58.8 °F 30.2 in WSW 2.4 mph 2.4 mph 63 % 0 in
10:44 72.5 °F 58.6 °F 30.2 in SW 2.3 mph 2.3 mph 62 % 0 in
10:49 73.4 °F 58.6 °F 30.2 in NE 2.3 mph 2.3 mph 60 % 0 in
10:54 73.9 °F 58.3 °F 30.2 in South 3.6 mph 3.6 mph 58 % 0 in
10:59 74.3 °F 58.6 °F 30.2 in NE 3.5 mph 3.5 mph 58 % 0 in
11:04 74.7 °F 58.8 °F 30.2 in NNW 1.4 mph 1.4 mph 58 % 0 in
11:09 74.7 °F 57.4 °F 30.2 in East 4.6 mph 4.6 mph 55 % 0 in
11:14 74.8 °F 57.6 °F 30.2 in North 4.6 mph 4.6 mph 55 % 0 in
11:19 74.8 °F 57.6 °F 30.2 in ENE 3.8 mph 3.8 mph 55 % 0 in
11:24 74.5 °F 56.1 °F 30.2 in ESE 3.8 mph 3.8 mph 53 % 0 in
11:29 75 °F 56.7 °F 30.2 in WNW 2.3 mph 2.3 mph 53 % 0 in
11:34 76.1 °F 57.7 °F 30.2 in ESE 3.5 mph 3.5 mph 53 % 0 in
11:39 76.5 °F 57.6 °F 30.2 in East 2.3 mph 2.4 mph 52 % 0 in
11:44 77 °F 57.9 °F 30.2 in WSW 4 mph 4 mph 52 % 0 in
11:49 77.2 °F 57 °F 30.2 in SW 2.3 mph 2.3 mph 50 % 0 in
11:54 76.8 °F 57.4 °F 30.2 in West 6.9 mph 6.9 mph 51 % 0 in
11:59 77.4 °F 56.1 °F 30.2 in East 5.9 mph 5.9 mph 48 % 0 in
12:04 76.6 °F 55.9 °F 30.2 in South 2.3 mph 2.3 mph 49 % 0 in
12:09 78.1 °F 56.1 °F 30.2 in WSW 2.4 mph 2.4 mph 47 % 0 in
12:14 78.3 °F 56.5 °F 30.2 in South 3.8 mph 3.8 mph 47 % 0 in
12:19 78.4 °F 56.5 °F 30.2 in SW 8.1 mph 8.1 mph 47 % 0 in
12:24 78.3 °F 56.5 °F 30.2 in ENE 2.3 mph 2.3 mph 47 % 0 in
12:29 79.5 °F 56.8 °F 30.2 in West 2.3 mph 2.3 mph 46 % 0 in
12:34 80.2 °F 58.3 °F 30.2 in WSW 5.9 mph 5.9 mph 47 % 0 in
12:39 80.8 °F 57.6 °F 30.2 in WSW 6.9 mph 6.9 mph 45 % 0 in
12:44 80.4 °F 57 °F 30.2 in SSE 6.9 mph 6.9 mph 45 % 0 in
12:49 80.2 °F 56.3 °F 30.2 in SSE 8.1 mph 8.1 mph 44 % 0 in
12:54 80.2 °F 57 °F 30.2 in SW 5.8 mph 5.8 mph 45 % 0 in
12:59 81 °F 57 °F 30.2 in SW 4.6 mph 4.6 mph 44 % 0 in
13:04 80.8 °F 56.1 °F 30.2 in West 6.9 mph 6.9 mph 43 % 0 in
13:09 81.5 °F 56.1 °F 30.2 in SSW 4.6 mph 4.6 mph 42 % 0 in
13:14 82.2 °F 57.6 °F 30.2 in West 5.8 mph 5.8 mph 43 % 0 in
13:19 82.4 °F 57.7 °F 30.2 in West 5.8 mph 5.8 mph 43 % 0 in
13:24 82.2 °F 56.8 °F 30.2 in WSW 3.5 mph 3.5 mph 42 % 0 in
13:34 82.9 °F 56.8 °F 30.2 in West 2 mph 2 mph 41 % 0 in
13:39 83.7 °F 56.8 °F 30.2 in WSW 6 mph 6 mph 40 % 0 in
13:44 83.5 °F 57.4 °F 30.2 in WSW 4 mph 4 mph 41 % 0 in
13:49 84.2 °F 56.7 °F 30.2 in SSW 3.5 mph 3.5 mph 39 % 0 in
13:54 84.2 °F 55.8 °F 30.2 in West 5.8 mph 5.8 mph 38 % 0 in
13:59 84.6 °F 56.1 °F 30.2 in SW 6.9 mph 6.9 mph 38 % 0 in
14:04 84.4 °F 55.9 °F 30.2 in West 10.4 mph 10.4 mph 38 % 0 in
14:09 84 °F 55.8 °F 30.2 in SSW 10.4 mph 10.4 mph 38 % 0 in
14:14 84.4 °F 55.2 °F 30.2 in SW 5.4 mph 5.4 mph 37 % 0 in
14:19 83.7 °F 55.4 °F 30.2 in SSW 6.9 mph 6.9 mph 38 % 0 in
14:24 83.7 °F 54.7 °F 30.1 in SW 6.9 mph 6.9 mph 37 % 0 in
14:29 84.4 °F 55.2 °F 30.1 in SW 9.8 mph 9.8 mph 37 % 0 in
14:34 83.8 °F 54.9 °F 30.1 in SW 5.8 mph 5.8 mph 37 % 0 in
14:39 83.1 °F 53.4 °F 30.1 in SW 11.5 mph 11.5 mph 36 % 0 in
14:44 83.5 °F 53.8 °F 30.1 in South 8.1 mph 8.1 mph 36 % 0 in
14:49 83.5 °F 54.5 °F 30.1 in WSW 7.4 mph 7.4 mph 37 % 0 in
14:54 83.1 °F 53.4 °F 30.1 in South 6 mph 6 mph 36 % 0 in
14:59 83.3 °F 53.6 °F 30.1 in SW 10.4 mph 10.4 mph 36 % 0 in
15:04 83.1 °F 53.4 °F 30.1 in SW 12.7 mph 12.7 mph 36 % 0 in
15:09 83.7 °F 54.7 °F 30.1 in WSW 6.4 mph 6.4 mph 37 % 0 in
15:14 83.8 °F 54.9 °F 30.1 in SSE 3.5 mph 3.5 mph 37 % 0 in
15:19 83.5 °F 54.5 °F 30.1 in WSW 9.2 mph 9.2 mph 37 % 0 in
15:24 83.8 °F 54.9 °F 30.1 in South 9.2 mph 9.2 mph 37 % 0 in
15:29 83.7 °F 54.7 °F 30.1 in SSE 6.9 mph 6.9 mph 37 % 0 in
15:34 84 °F 54.9 °F 30.1 in SSW 6.9 mph 6.9 mph 37 % 0 in
15:39 83.7 °F 55.4 °F 30.1 in SW 12.7 mph 12.7 mph 38 % 0 in
15:44 83.7 °F 55.4 °F 30.1 in SW 13.8 mph 13.8 mph 38 % 0 in
15:49 83.5 °F 55.2 °F 30.1 in South 9.2 mph 9.2 mph 38 % 0 in
15:54 83.1 °F 55.6 °F 30.1 in SW 8.1 mph 8.1 mph 39 % 0 in
15:59 83.3 °F 55 °F 30.1 in SSE 9.2 mph 9.2 mph 38 % 0 in
16:04 83.1 °F 55.6 °F 30.1 in SSW 8.1 mph 8.1 mph 39 % 0 in
16:09 82.8 °F 54.7 °F 30.1 in WSW 8.1 mph 8.1 mph 38 % 0 in
16:14 82.9 °F 54.7 °F 30.1 in SSW 10.4 mph 10.4 mph 38 % 0 in
16:19 82.8 °F 55.2 °F 30.1 in South 9.2 mph 9.2 mph 39 % 0 in
16:24 83.1 °F 55.6 °F 30.1 in SW 7.1 mph 7.1 mph 39 % 0 in
16:29 83.1 °F 55.6 °F 30.1 in WSW 9.2 mph 9.2 mph 39 % 0 in
16:34 82.8 °F 55.9 °F 30.1 in SSW 9.2 mph 9.2 mph 40 % 0 in
16:39 82.8 °F 55.9 °F 30.1 in SW 4.6 mph 4.6 mph 40 % 0 in
16:44 83.7 °F 56.8 °F 30.1 in SW 6.9 mph 6.9 mph 40 % 0 in
16:49 82.8 °F 56.7 °F 30.1 in South 6.9 mph 6.9 mph 41 % 0 in
16:54 82.2 °F 56.1 °F 30.1 in SW 11.5 mph 11.5 mph 41 % 0 in
16:59 82.2 °F 56.1 °F 30.1 in SW 8.5 mph 8.5 mph 41 % 0 in
17:04 82.2 °F 56.1 °F 30.1 in SW 10.4 mph 10.4 mph 41 % 0 in
17:09 82.2 °F 56.8 °F 30.1 in WSW 15 mph 15 mph 42 % 0 in
17:14 81.9 °F 56.5 °F 30.1 in WSW 8.1 mph 8.1 mph 42 % 0 in
17:19 81.7 °F 56.5 °F 30.1 in South 9.2 mph 9.2 mph 42 % 0 in
17:24 81.9 °F 56.5 °F 30.1 in SW 10.4 mph 10.4 mph 42 % 0 in
17:29 81 °F 55.8 °F 30.1 in SSW 12.7 mph 12.7 mph 42 % 0 in
17:34 81 °F 56.5 °F 30.1 in WSW 11.5 mph 11.5 mph 43 % 0 in
17:39 81 °F 56.5 °F 30.1 in South 11.5 mph 11.5 mph 43 % 0 in
17:44 81 °F 56.5 °F 30.1 in SW 13.8 mph 13.8 mph 43 % 0 in
17:49 80.4 °F 55.9 °F 30.1 in SSW 15 mph 15 mph 43 % 0 in
17:54 80.2 °F 55.8 °F 30.1 in SW 10.4 mph 10.4 mph 43 % 0 in
17:59 80.1 °F 55.6 °F 30.1 in SSE 9.2 mph 9.2 mph 43 % 0 in
18:04 79.7 °F 55.2 °F 30.1 in South 13 mph 13 mph 43 % 0 in
18:09 79.9 °F 55.4 °F 30.1 in SW 13.8 mph 13.8 mph 43 % 0 in
18:14 79.5 °F 54.3 °F 30.1 in SW 10.4 mph 10.4 mph 42 % 0 in
18:19 79.5 °F 54.3 °F 30.1 in SSW 8.1 mph 8.1 mph 42 % 0 in
18:24 79 °F 54.7 °F 30.1 in WSW 11.5 mph 11.5 mph 43 % 0 in
18:29 78.8 °F 54.3 °F 30.1 in SW 10.4 mph 10.4 mph 43 % 0 in
18:34 78.4 °F 54.1 °F 30.1 in South 11.5 mph 11.5 mph 43 % 0 in
18:39 78.6 °F 54.1 °F 30.1 in West 8.7 mph 8.7 mph 43 % 0 in
18:44 78.4 °F 54.1 °F 30.1 in SSW 10.4 mph 10.4 mph 43 % 0 in
18:49 78.3 °F 54.7 °F 30.1 in SW 9.2 mph 9.2 mph 44 % 0 in
18:54 77.9 °F 54.1 °F 30.1 in WSW 8.1 mph 8.1 mph 44 % 0 in
18:59 77.7 °F 54.7 °F 30.1 in SW 11.5 mph 11.5 mph 45 % 0 in
19:04 77.4 °F 55 °F 30.1 in WSW 17.3 mph 17.3 mph 46 % 0 in
19:09 76.8 °F 55.6 °F 30.1 in SW 11.5 mph 11.5 mph 48 % 0 in
19:14 76.3 °F 55.8 °F 30.1 in SW 5.9 mph 8.1 mph 49 % 0 in
19:19 76.1 °F 55.6 °F 30.1 in SW 10.4 mph 10.4 mph 49 % 0 in
19:24 76.1 °F 56.1 °F 30.1 in WSW 9.2 mph 9.2 mph 50 % 0 in
19:29 75.6 °F 56.7 °F 30.1 in WSW 12.7 mph 12.7 mph 52 % 0 in
19:34 75.2 °F 56.8 °F 30.1 in SSE 11.5 mph 11.5 mph 53 % 0 in
19:39 75 °F 57.2 °F 30.1 in SW 12.7 mph 12.7 mph 54 % 0 in
19:44 74.7 °F 57.4 °F 30.1 in West 11.5 mph 11.5 mph 55 % 0 in
19:49 74.5 °F 57.4 °F 30.1 in WSW 13.8 mph 13.8 mph 55 % 0 in
19:54 74.3 °F 57 °F 30.1 in SW 8.1 mph 8.1 mph 55 % 0 in
19:59 73.8 °F 58.1 °F 30.1 in SW 12.7 mph 12.7 mph 58 % 0 in
20:04 73.6 °F 57.9 °F 30.1 in WSW 8.1 mph 8.1 mph 58 % 0 in
20:09 73.4 °F 57.7 °F 30.1 in SW 6.9 mph 6.9 mph 58 % 0 in
20:14 73.2 °F 57.9 °F 30.1 in SSW 10.4 mph 10.4 mph 59 % 0 in
20:19 73 °F 57.9 °F 30.1 in SSW 9.2 mph 9.2 mph 59 % 0 in
20:24 72.9 °F 57.7 °F 30.1 in SSW 10.4 mph 10.4 mph 59 % 0 in
20:29 72.7 °F 57.6 °F 30.1 in SW 6 mph 6.2 mph 59 % 0 in
20:34 72.5 °F 57.7 °F 30.1 in SW 6.9 mph 6.9 mph 60 % 0 in
20:39 72.3 °F 57.7 °F 30.1 in WSW 9.2 mph 9.2 mph 60 % 0 in
20:44 72.3 °F 58.1 °F 30.1 in WSW 8.1 mph 8.1 mph 61 % 0 in
20:49 72.1 °F 57.9 °F 30.1 in WSW 9.2 mph 9.2 mph 61 % 0 in
20:54 72 °F 57.7 °F 30.1 in SSW 6.9 mph 6.9 mph 61 % 0 in
20:59 71.8 °F 58.1 °F 30.1 in SW 10.4 mph 10.4 mph 62 % 0 in
21:04 71.8 °F 58.1 °F 30.1 in SW 9.2 mph 9.2 mph 62 % 0 in
21:09 71.6 °F 57.9 °F 30.1 in SW 5.8 mph 5.8 mph 62 % 0 in
21:14 71.4 °F 58.3 °F 30.1 in SW 8.7 mph 8.7 mph 63 % 0 in
21:19 71.2 °F 58.5 °F 30.1 in SW 5.8 mph 5.8 mph 64 % 0 in
21:24 71.2 °F 58.8 °F 30.1 in SW 10.4 mph 10.4 mph 65 % 0 in
21:29 71.1 °F 58.6 °F 30.1 in SW 5.8 mph 5.8 mph 65 % 0 in
21:34 71.1 °F 59.2 °F 30.1 in SW 3.8 mph 3.8 mph 66 % 0 in
21:39 70.9 °F 59 °F 30.1 in SW 4.6 mph 4.6 mph 66 % 0 in
21:44 70.7 °F 58.8 °F 30.1 in SW 4.6 mph 4.6 mph 66 % 0 in
21:49 70.7 °F 59.2 °F 30.1 in SSW 6.9 mph 6.9 mph 67 % 0 in
21:54 70.5 °F 59.4 °F 30.1 in SW 6.9 mph 6.9 mph 68 % 0 in
21:59 70.5 °F 59.9 °F 30.1 in SW 4.6 mph 4.6 mph 69 % 0 in
22:04 70.5 °F 59.9 °F 30.1 in SSW 5.8 mph 5.8 mph 69 % 0 in
22:09 70.3 °F 60.1 °F 30.1 in SSW 5.8 mph 5.8 mph 70 % 0 in
22:14 70.2 °F 60.3 °F 30.1 in SW 4.6 mph 4.6 mph 71 % 0 in
22:19 70.3 °F 60.4 °F 30.1 in WSW 5.8 mph 5.8 mph 71 % 0 in
22:24 70.2 °F 60.6 °F 30.1 in WSW 4.6 mph 4.6 mph 72 % 0 in
22:29 70.2 °F 60.6 °F 30.1 in SW 4.6 mph 4.6 mph 72 % 0 in
22:34 70 °F 60.4 °F 30.1 in SSW 4.6 mph 4.6 mph 72 % 0 in
22:39 70 °F 60.4 °F 30.1 in SW 4.6 mph 4.6 mph 72 % 0 in
22:44 70 °F 61 °F 30.1 in WSW 3.6 mph 3.6 mph 73 % 0 in
22:49 70 °F 61 °F 30.1 in West 5.8 mph 5.8 mph 73 % 0 in
22:54 69.8 °F 60.8 °F 30.1 in WSW 3.6 mph 3.6 mph 73 % 0 in
22:59 69.8 °F 60.8 °F 30.1 in SW 3.5 mph 3.5 mph 73 % 0 in
23:04 69.8 °F 61.2 °F 30.1 in West 2.3 mph 2.3 mph 74 % 0 in
23:09 69.8 °F 61.2 °F 30.1 in WSW 4 mph 4 mph 74 % 0 in
23:14 69.8 °F 61.2 °F 30.1 in WSW 2.3 mph 2.3 mph 74 % 0 in
23:19 69.6 °F 61 °F 30.1 in WSW 3.3 mph 3.3 mph 74 % 0 in
23:24 69.6 °F 61 °F 30.1 in West 3.5 mph 3.5 mph 74 % 0 in
23:29 69.4 °F 61.2 °F 30.1 in SW 2.3 mph 2.3 mph 75 % 0 in
23:34 69.4 °F 61.2 °F 30.1 in WSW 4.6 mph 4.6 mph 75 % 0 in
23:39 69.3 °F 61.3 °F 30.1 in SSW 2.4 mph 2.4 mph 76 % 0 in
23:44 69.3 °F 61.3 °F 30.1 in West 4.6 mph 4.6 mph 76 % 0 in
23:49 69.1 °F 61.5 °F 30.1 in WSW 3.1 mph 3.1 mph 77 % 0 in
23:54 69.1 °F 61.2 °F 30.1 in WSW 2.3 mph 2.3 mph 76 % 0 in
23:59 69.1 °F 61.5 °F 30.1 in WSW 3.5 mph 3.5 mph 77 % 0 in
Meteo Sesrovires
Elogis d' Weather Underground - 3.5 mb

Guio original per  Jim McMurry - jmcmurry@mwt.net Adaptat per a la plantilla per  Wim van der Kuil - Leuven-Template.eu

Trobareu la nostra informacio del temps tambe a:

Weather Underground

AWEKAS